createdAt,value
2019-06-27T00:00:43.453Z,48.42
2019-06-27T00:03:13.128Z,46.55
2019-06-27T00:05:42.895Z,46.05
2019-06-27T00:08:12.554Z,47.63
2019-06-27T00:10:42.226Z,47.03
2019-06-27T00:13:11.796Z,47.57
2019-06-27T00:15:41.532Z,46.62
2019-06-27T00:18:11.205Z,46.55
2019-06-27T00:20:40.790Z,47.11
2019-06-27T00:23:10.434Z,46.25
2019-06-27T00:25:40.030Z,46.24
2019-06-27T00:28:09.603Z,46.80
2019-06-27T00:30:39.268Z,46.81
2019-06-27T00:33:08.909Z,47.58
2019-06-27T00:35:38.506Z,49.72
2019-06-27T00:38:08.049Z,48.16
2019-06-27T00:40:37.705Z,48.43
2019-06-27T00:43:07.323Z,49.67
2019-06-27T00:45:37.065Z,49.72
2019-06-27T00:48:06.776Z,50.04
2019-06-27T00:50:36.398Z,49.77
2019-06-27T00:53:06.030Z,47.37
2019-06-27T00:55:35.675Z,48.94
2019-06-27T00:58:05.395Z,48.91
2019-06-27T01:00:35.021Z,49.26
2019-06-27T01:03:04.723Z,48.50
2019-06-27T01:05:34.464Z,48.95
2019-06-27T01:08:04.106Z,50.14
2019-06-27T01:10:34.170Z,50.29
2019-06-27T01:13:03.781Z,49.30
2019-06-27T01:15:33.340Z,49.13
2019-06-27T01:18:02.993Z,49.09
2019-06-27T01:20:32.634Z,50.49
2019-06-27T01:23:02.338Z,48.91
2019-06-27T01:25:31.961Z,48.11
2019-06-27T01:28:01.697Z,49.69
2019-06-27T01:30:31.418Z,48.80
2019-06-27T01:33:01.041Z,50.14
2019-06-27T01:35:30.658Z,49.20
2019-06-27T01:38:00.258Z,50.63
2019-06-27T01:40:30.176Z,48.41
2019-06-27T01:43:00.047Z,50.12
2019-06-27T01:45:35.937Z,48.30
2019-06-27T01:48:05.719Z,49.82
2019-06-27T01:50:35.288Z,50.03
2019-06-27T01:53:04.930Z,48.46
2019-06-27T01:55:34.534Z,48.34
2019-06-27T01:58:04.208Z,49.14
2019-06-27T02:00:33.875Z,47.42
2019-06-27T02:03:03.527Z,49.84
2019-06-27T02:05:33.136Z,50.27
2019-06-27T02:08:02.771Z,49.83
2019-06-27T02:10:32.327Z,51.26
2019-06-27T02:13:01.893Z,47.90
2019-06-27T02:15:31.585Z,48.25
2019-06-27T02:18:01.160Z,47.91
2019-06-27T02:20:30.816Z,49.04
2019-06-27T02:23:00.384Z,49.82
2019-06-27T02:25:30.280Z,49.06
2019-06-27T02:28:04.338Z,50.13
2019-06-27T02:30:38.304Z,48.65
2019-06-27T02:33:08.000Z,47.57
2019-06-27T02:35:37.696Z,49.22
2019-06-27T02:38:07.321Z,49.44
2019-06-27T02:40:37.013Z,48.63
2019-06-27T02:43:07.083Z,48.13
2019-06-27T02:45:37.795Z,49.34
2019-06-27T02:48:07.465Z,49.91
2019-06-27T02:50:37.160Z,49.54
2019-06-27T02:53:06.713Z,50.31
2019-06-27T02:55:36.316Z,49.56
2019-06-27T02:58:27.780Z,50.58
2019-06-27T03:00:37.205Z,49.51
2019-06-27T03:03:07.290Z,50.34
2019-06-27T03:05:36.891Z,51.99
2019-06-27T03:08:07.083Z,50.97
2019-06-27T03:10:36.616Z,50.37
2019-06-27T03:13:06.223Z,50.34
2019-06-27T03:15:36.221Z,50.05
2019-06-27T03:18:05.811Z,50.59
2019-06-27T03:20:35.529Z,50.88
2019-06-27T03:23:05.202Z,49.04
2019-06-27T03:25:34.878Z,51.94
2019-06-27T03:28:04.597Z,50.88
2019-06-27T03:30:34.550Z,50.39
2019-06-27T03:33:04.235Z,49.78
2019-06-27T03:35:33.812Z,50.16
2019-06-27T03:38:03.565Z,52.58
2019-06-27T03:40:33.107Z,50.61
2019-06-27T03:43:02.696Z,51.29
2019-06-27T03:45:32.271Z,50.88
2019-06-27T03:48:01.827Z,51.05
2019-06-27T03:50:31.446Z,52.20
2019-06-27T03:53:00.989Z,51.73
2019-06-27T03:55:30.535Z,52.50
2019-06-27T03:58:00.080Z,52.79
2019-06-27T04:00:33.180Z,52.48
2019-06-27T04:03:02.785Z,51.06
2019-06-27T04:05:32.359Z,51.98
2019-06-27T04:08:01.917Z,51.98
2019-06-27T04:10:31.486Z,51.85
2019-06-27T04:13:01.101Z,53.26
2019-06-27T04:15:30.702Z,51.77
2019-06-27T04:18:00.301Z,52.39
2019-06-27T04:20:29.826Z,51.79
2019-06-27T04:22:59.406Z,50.94
2019-06-27T04:25:28.982Z,52.02
2019-06-27T04:28:00.103Z,51.34
2019-06-27T04:30:29.880Z,52.38
2019-06-27T04:32:59.809Z,51.78
2019-06-27T04:35:29.395Z,51.51
2019-06-27T04:37:58.929Z,50.85
2019-06-27T04:40:28.422Z,52.30
2019-06-27T04:42:58.035Z,51.32
2019-06-27T04:45:27.608Z,51.53
2019-06-27T04:47:57.152Z,51.68
2019-06-27T04:50:26.697Z,50.36
2019-06-27T04:52:56.273Z,50.95
2019-06-27T04:55:25.813Z,51.92
2019-06-27T04:57:55.369Z,52.54
2019-06-27T05:00:29.072Z,52.24
2019-06-27T05:02:58.900Z,51.65
2019-06-27T05:05:28.589Z,50.20
2019-06-27T05:07:58.156Z,51.98
2019-06-27T05:12:59.227Z,50.46
2019-06-27T05:15:28.818Z,50.71
2019-06-27T05:17:58.469Z,52.47
2019-06-27T05:20:27.956Z,53.11
2019-06-27T05:22:57.548Z,52.18
2019-06-27T05:25:29.570Z,52.99
2019-06-27T05:27:58.437Z,52.58
2019-06-27T05:30:28.093Z,52.37
2019-06-27T05:32:57.777Z,53.07
2019-06-27T05:35:27.611Z,52.87
2019-06-27T05:37:57.291Z,52.95
2019-06-27T05:40:26.757Z,52.89
2019-06-27T05:42:56.580Z,52.60
2019-06-27T05:45:26.165Z,52.56
2019-06-27T05:47:55.907Z,52.76
2019-06-27T05:50:25.419Z,52.77
2019-06-27T05:53:03.135Z,52.61
2019-06-27T05:55:43.652Z,52.60
2019-06-27T05:58:13.208Z,52.16
2019-06-27T06:00:42.692Z,52.55
2019-06-27T06:03:12.319Z,52.48
2019-06-27T06:05:41.760Z,52.43
2019-06-27T06:08:11.466Z,52.32
2019-06-27T06:10:40.988Z,52.50
2019-06-27T06:13:10.704Z,52.13
2019-06-27T06:15:40.389Z,51.86
2019-06-27T06:18:09.873Z,52.17
2019-06-27T06:20:39.480Z,51.72
2019-06-27T06:23:09.031Z,51.90
2019-06-27T06:25:38.614Z,52.03
2019-06-27T06:28:08.189Z,52.13
2019-06-27T06:30:45.535Z,52.13
2019-06-27T06:33:15.204Z,51.90
2019-06-27T06:35:44.837Z,52.03
2019-06-27T06:38:14.461Z,51.86
2019-06-27T06:40:44.569Z,51.92
2019-06-27T06:43:14.113Z,51.79
2019-06-27T06:45:43.602Z,51.72
2019-06-27T06:48:13.206Z,52.28
2019-06-27T06:50:42.777Z,52.74
2019-06-27T06:53:12.265Z,52.17
2019-06-27T06:55:42.907Z,52.03
2019-06-27T06:58:12.659Z,52.10
2019-06-27T07:00:42.349Z,52.11
2019-06-27T07:03:12.068Z,51.76
2019-06-27T07:05:41.668Z,51.55
2019-06-27T07:08:11.149Z,51.81
2019-06-27T07:10:40.649Z,51.69
2019-06-27T07:13:10.238Z,51.74
2019-06-27T07:15:39.867Z,51.54
2019-06-27T07:18:09.379Z,51.60
2019-06-27T07:20:38.884Z,51.75
2019-06-27T07:23:08.550Z,51.52
2019-06-27T07:25:38.197Z,51.49
2019-06-27T07:28:07.667Z,51.15
2019-06-27T07:30:37.333Z,51.30
2019-06-27T07:33:10.413Z,51.44
2019-06-27T07:35:40.031Z,51.33
2019-06-27T07:38:09.727Z,51.54
2019-06-27T07:40:39.340Z,51.48
2019-06-27T07:43:09.048Z,51.49
2019-06-27T07:45:38.660Z,51.26
2019-06-27T07:48:08.408Z,51.29
2019-06-27T07:50:37.903Z,51.36
2019-06-27T07:53:07.573Z,51.10
2019-06-27T07:55:37.166Z,51.12
2019-06-27T07:58:06.784Z,51.08
2019-06-27T08:00:36.366Z,51.40
2019-06-27T08:03:05.935Z,50.96
2019-06-27T08:05:35.546Z,51.13
2019-06-27T08:08:05.103Z,51.17
2019-06-27T08:10:34.728Z,51.07
2019-06-27T08:13:04.222Z,51.09
2019-06-27T08:15:33.860Z,51.26
2019-06-27T08:18:03.421Z,51.22
2019-06-27T08:20:33.000Z,51.47
2019-06-27T08:23:02.571Z,51.16
2019-06-27T08:25:32.215Z,51.18
2019-06-27T08:28:01.720Z,51.05
2019-06-27T08:30:31.279Z,50.98
2019-06-27T08:33:00.894Z,51.06
2019-06-27T08:35:33.486Z,50.90
2019-06-27T08:38:01.733Z,50.65
2019-06-27T08:40:32.886Z,50.94
2019-06-27T08:43:02.500Z,50.77
2019-06-27T08:45:32.023Z,50.53
2019-06-27T08:48:01.524Z,50.38
2019-06-27T08:50:31.092Z,50.37
2019-06-27T08:53:01.570Z,50.20
2019-06-27T08:55:31.208Z,50.12
2019-06-27T08:58:00.634Z,50.00
2019-06-27T09:00:30.201Z,50.04
2019-06-27T09:03:00.114Z,49.86
2019-06-27T09:05:29.563Z,49.75
2019-06-27T09:07:59.087Z,50.55
2019-06-27T09:10:28.663Z,49.53
2019-06-27T09:12:58.169Z,50.14
2019-06-27T09:15:27.778Z,49.35
2019-06-27T09:17:57.285Z,49.10
2019-06-27T09:20:26.855Z,49.50
2019-06-27T09:22:56.426Z,49.37
2019-06-27T09:25:25.899Z,49.21
2019-06-27T09:34:00.226Z,49.44
2019-06-27T09:36:29.833Z,49.10
2019-06-27T09:38:59.311Z,49.22
2019-06-27T09:41:29.334Z,49.04
2019-06-27T09:43:58.787Z,48.83
2019-06-27T09:46:34.613Z,49.69
2019-06-27T09:49:04.115Z,49.00
2019-06-27T09:51:33.680Z,48.77
2019-06-27T09:54:03.223Z,50.18
2019-06-27T09:56:32.769Z,48.99
2019-06-27T09:59:02.192Z,48.49
2019-06-27T10:01:31.716Z,50.52
2019-06-27T10:04:01.444Z,50.04
2019-06-27T10:06:30.972Z,49.55
2019-06-27T10:09:00.479Z,47.78
2019-06-27T10:11:30.012Z,47.73
2019-06-27T10:13:59.562Z,48.09
2019-06-27T10:16:29.144Z,50.67
2019-06-27T10:18:58.720Z,47.68
2019-06-27T10:21:28.176Z,47.82
2019-06-27T10:23:57.669Z,47.86
2019-06-27T10:26:27.264Z,47.39
2019-06-27T10:28:56.844Z,47.71
2019-06-27T10:31:26.327Z,47.19
2019-06-27T10:33:55.869Z,47.21
2019-06-27T10:36:25.426Z,46.63
2019-06-27T10:38:54.889Z,46.59
2019-06-27T10:41:24.370Z,46.71
2019-06-27T10:43:53.949Z,46.48
2019-06-27T10:46:23.358Z,48.35
2019-06-27T10:48:53.143Z,46.74
2019-06-27T10:51:22.659Z,47.12
2019-06-27T10:53:52.057Z,46.95
2019-06-27T10:56:21.566Z,46.01
2019-06-27T10:58:51.138Z,47.08
2019-06-27T11:01:20.667Z,46.55
2019-06-27T11:03:50.254Z,46.02
2019-06-27T11:06:19.807Z,48.89
2019-06-27T11:08:49.449Z,47.96
2019-06-27T11:11:19.044Z,45.50
2019-06-27T11:13:58.188Z,45.48
2019-06-27T11:16:20.172Z,45.53
2019-06-27T11:18:49.722Z,45.42
2019-06-27T11:21:19.586Z,45.99
2019-06-27T11:23:49.074Z,45.33
2019-06-27T11:26:18.650Z,45.32
2019-06-27T11:28:48.435Z,44.60
2019-06-27T11:31:22.186Z,45.10
2019-06-27T11:33:51.764Z,44.92
2019-06-27T11:36:21.408Z,45.58
2019-06-27T11:38:51.003Z,44.91
2019-06-27T11:41:20.618Z,44.56
2019-06-27T11:43:50.096Z,44.35
2019-06-27T11:46:19.815Z,44.71
2019-06-27T11:48:49.484Z,43.38
2019-06-27T11:51:18.943Z,43.78
2019-06-27T11:53:48.543Z,43.73
2019-06-27T11:56:18.191Z,43.44
2019-06-27T11:58:47.984Z,42.61
2019-06-27T12:01:17.526Z,43.52
2019-06-27T12:03:56.678Z,42.69
2019-06-27T12:06:26.206Z,43.37
2019-06-27T12:08:55.838Z,43.04
2019-06-27T12:11:25.374Z,42.60
2019-06-27T12:13:54.959Z,41.91
2019-06-27T12:16:24.405Z,41.89
2019-06-27T12:18:53.959Z,42.55
2019-06-27T12:21:23.516Z,43.00
2019-06-27T12:23:53.170Z,42.57
2019-06-27T12:26:22.624Z,42.87
2019-06-27T12:28:52.454Z,41.77
2019-06-27T12:31:22.058Z,41.94
2019-06-27T12:34:05.564Z,42.57
2019-06-27T12:36:22.805Z,42.21
2019-06-27T12:38:53.826Z,42.02
2019-06-27T12:41:23.469Z,41.22
2019-06-27T12:43:52.909Z,41.48
2019-06-27T12:46:22.482Z,41.15
2019-06-27T12:48:52.219Z,41.73
2019-06-27T12:51:21.818Z,41.58
2019-06-27T12:53:55.363Z,41.49
2019-06-27T12:56:22.577Z,41.66
2019-06-27T12:58:52.610Z,41.38
2019-06-27T13:01:22.099Z,41.43
2019-06-27T13:03:51.608Z,41.92
2019-06-27T13:06:21.259Z,42.00
2019-06-27T13:08:50.831Z,40.86
2019-06-27T13:11:20.437Z,41.62
2019-06-27T13:13:50.004Z,41.28
2019-06-27T13:16:19.574Z,41.13
2019-06-27T13:18:49.238Z,41.60
2019-06-27T13:21:19.677Z,41.42
2019-06-27T13:23:50.738Z,40.81
2019-06-27T13:26:20.424Z,41.83
2019-06-27T13:28:50.010Z,41.25
2019-06-27T13:31:19.758Z,41.60
2019-06-27T13:33:49.308Z,41.39
2019-06-27T13:36:18.843Z,41.24
2019-06-27T13:38:48.349Z,41.56
2019-06-27T13:41:17.961Z,41.60
2019-06-27T13:43:49.320Z,41.82
2019-06-27T13:46:18.946Z,41.75
2019-06-27T13:48:48.479Z,41.12
2019-06-27T13:51:18.614Z,41.47
2019-06-27T13:53:48.137Z,41.42
2019-06-27T13:56:18.287Z,42.06
2019-06-27T13:58:47.803Z,41.22
2019-06-27T14:01:18.087Z,40.90
2019-06-27T14:03:49.765Z,41.17
2019-06-27T14:06:19.430Z,41.13
2019-06-27T14:08:49.484Z,40.47
2019-06-27T14:11:19.179Z,41.07
2019-06-27T14:13:48.700Z,40.57
2019-06-27T14:16:18.340Z,40.40
2019-06-27T14:18:47.806Z,40.36
2019-06-27T14:21:17.260Z,40.33
2019-06-27T14:23:47.640Z,40.15
2019-06-27T14:26:17.283Z,40.77
2019-06-27T14:28:47.241Z,40.34
2019-06-27T14:31:16.681Z,40.92
2019-06-27T14:33:46.163Z,40.38
2019-06-27T14:36:16.427Z,41.05
2019-06-27T14:38:46.498Z,40.44
2019-06-27T14:41:15.942Z,40.75
2019-06-27T14:43:45.494Z,39.90
2019-06-27T14:46:15.638Z,40.23
2019-06-27T14:48:45.920Z,40.01
2019-06-27T14:51:16.464Z,39.92
2019-06-27T14:53:46.013Z,39.36
2019-06-27T14:56:15.543Z,39.61
2019-06-27T14:58:45.142Z,40.12
2019-06-27T15:01:14.884Z,39.44
2019-06-27T15:03:44.523Z,39.12
2019-06-27T15:06:14.229Z,40.06
2019-06-27T15:08:44.343Z,39.01
2019-06-27T15:11:14.628Z,39.63
2019-06-27T15:13:44.673Z,39.06
2019-06-27T15:16:14.828Z,38.19
2019-06-27T15:18:44.391Z,38.73
2019-06-27T15:21:14.380Z,38.93
2019-06-27T15:23:44.282Z,38.37
2019-06-27T15:26:14.443Z,38.93
2019-06-27T15:28:43.872Z,37.73
2019-06-27T15:31:14.007Z,38.25
2019-06-27T15:33:43.431Z,37.40
2019-06-27T15:36:13.070Z,38.86
2019-06-27T15:38:43.162Z,37.22
2019-06-27T15:41:13.279Z,38.42
2019-06-27T15:43:42.758Z,35.89
2019-06-27T15:46:12.246Z,36.81
2019-06-27T15:48:42.034Z,35.79
2019-06-27T15:51:12.398Z,36.44
2019-06-27T15:53:42.541Z,35.41
2019-06-27T15:56:12.628Z,37.64
2019-06-27T15:58:42.200Z,36.11
2019-06-27T16:01:11.773Z,35.36
2019-06-27T16:03:41.336Z,37.18
2019-06-27T16:06:14.759Z,36.69
2019-06-27T16:08:42.172Z,35.67
2019-06-27T16:11:11.623Z,35.33
2019-06-27T16:13:41.122Z,34.88
2019-06-27T16:16:11.242Z,34.87
2019-06-27T16:18:42.905Z,35.13
2019-06-27T16:21:12.414Z,35.13
2019-06-27T16:23:41.994Z,36.70
2019-06-27T16:26:12.254Z,36.37
2019-06-27T16:28:41.852Z,35.51
2019-06-27T16:31:11.439Z,36.55
2019-06-27T16:33:41.555Z,37.37
2019-06-27T16:36:24.396Z,34.54
2019-06-27T16:38:42.949Z,35.27
2019-06-27T16:41:12.532Z,36.65
2019-06-27T16:43:42.046Z,34.29
2019-06-27T16:46:11.733Z,34.70
2019-06-27T16:48:41.147Z,35.69
2019-06-27T16:51:11.087Z,35.94
2019-06-27T16:53:40.625Z,36.16
2019-06-27T16:56:10.277Z,35.41
2019-06-27T16:58:40.711Z,35.44
2019-06-27T17:01:10.324Z,35.61
2019-06-27T17:03:39.727Z,31.71
2019-06-27T17:06:09.353Z,36.26
2019-06-27T17:08:38.945Z,35.93
2019-06-27T17:11:08.565Z,34.78
2019-06-27T17:13:38.080Z,34.56
2019-06-27T17:16:07.793Z,33.87
2019-06-27T17:18:37.300Z,36.50
2019-06-27T17:21:06.851Z,33.94
2019-06-27T17:23:36.369Z,32.89
2019-06-27T17:26:11.642Z,32.50
2019-06-27T17:28:40.507Z,34.39
2019-06-27T17:31:13.165Z,32.32
2019-06-27T17:33:42.768Z,33.50
2019-06-27T17:36:12.530Z,34.50
2019-06-27T17:38:42.371Z,34.77
2019-06-27T17:41:12.188Z,33.26
2019-06-27T17:43:41.742Z,35.34
2019-06-27T17:46:11.310Z,35.08
2019-06-27T17:48:40.877Z,35.42
2019-06-27T17:51:10.461Z,34.65
2019-06-27T17:53:40.034Z,34.10
2019-06-27T17:56:09.543Z,33.59
2019-06-27T17:58:39.064Z,32.05
2019-06-27T18:01:08.822Z,32.79
2019-06-27T18:03:38.404Z,33.17
2019-06-27T18:06:07.993Z,31.70
2019-06-27T18:08:37.566Z,32.06
2019-06-27T18:11:07.087Z,31.93
2019-06-27T18:13:36.695Z,31.32
2019-06-27T18:16:06.398Z,31.48
2019-06-27T18:18:35.922Z,31.07
2019-06-27T18:21:05.438Z,30.84
2019-06-27T18:23:35.021Z,31.12
2019-06-27T18:26:04.827Z,30.73
2019-06-27T18:28:34.401Z,30.74
2019-06-27T18:31:03.984Z,30.82
2019-06-27T18:33:33.480Z,30.37
2019-06-27T18:36:03.360Z,30.40
2019-06-27T18:38:32.953Z,30.04
2019-06-27T18:41:02.540Z,29.98
2019-06-27T18:43:32.041Z,29.98
2019-06-27T18:46:01.627Z,29.18
2019-06-27T18:48:31.179Z,29.22
2019-06-27T18:51:00.785Z,28.90
2019-06-27T18:53:30.275Z,29.38
2019-06-27T18:55:59.893Z,28.69
2019-06-27T18:58:29.509Z,28.45
2019-06-27T19:00:59.038Z,28.75
2019-06-27T19:03:28.626Z,28.64
2019-06-27T19:05:58.202Z,28.43
2019-06-27T19:08:27.712Z,28.30
2019-06-27T19:10:57.295Z,28.40
2019-06-27T19:13:26.852Z,28.30
2019-06-27T19:15:56.377Z,29.07
2019-06-27T19:18:44.749Z,28.89
2019-06-27T19:21:19.971Z,30.21
2019-06-27T19:24:14.738Z,32.98
2019-06-27T19:26:44.708Z,32.76
2019-06-27T19:29:14.246Z,34.31
2019-06-27T19:31:43.818Z,34.55
2019-06-27T19:34:13.387Z,34.70
2019-06-27T19:36:42.887Z,34.50
2019-06-27T19:39:12.573Z,34.42
2019-06-27T19:41:42.077Z,33.92
2019-06-27T19:44:11.573Z,33.73
2019-06-27T19:46:41.180Z,33.42
2019-06-27T19:49:10.735Z,33.81
2019-06-27T19:51:40.378Z,33.72
2019-06-27T19:54:09.948Z,33.49
2019-06-27T19:56:39.597Z,33.14
2019-06-27T19:59:09.430Z,33.01
2019-06-27T20:01:39.094Z,32.84
2019-06-27T20:04:09.049Z,32.25
2019-06-27T20:06:38.630Z,32.41
2019-06-27T20:09:08.279Z,32.61
2019-06-27T20:11:37.848Z,32.27
2019-06-27T20:14:07.429Z,31.25
2019-06-27T20:16:37.018Z,31.07
2019-06-27T20:19:06.517Z,29.71
2019-06-27T20:21:36.101Z,30.40
2019-06-27T20:24:05.692Z,30.54
2019-06-27T20:26:35.273Z,30.33
2019-06-27T20:29:04.844Z,29.98
2019-06-27T20:31:34.356Z,29.72
2019-06-27T20:34:03.952Z,29.66
2019-06-27T20:36:33.610Z,29.84
2019-06-27T20:39:03.897Z,29.16
2019-06-27T20:41:33.399Z,29.65
2019-06-27T20:44:02.968Z,29.61
2019-06-27T20:46:32.473Z,29.30
2019-06-27T20:49:01.980Z,29.19
2019-06-27T20:51:31.487Z,28.60
2019-06-27T20:54:01.015Z,28.18
2019-06-27T20:56:30.622Z,28.53
2019-06-27T20:59:00.160Z,28.97
2019-06-27T21:01:31.705Z,29.40
2019-06-27T21:04:01.007Z,28.89
2019-06-27T21:06:30.491Z,29.14
2019-06-27T21:09:00.021Z,28.74
2019-06-27T21:11:29.494Z,28.86
2019-06-27T21:13:59.001Z,28.40
2019-06-27T21:16:28.572Z,28.79
2019-06-27T21:18:58.145Z,28.69
2019-06-27T21:21:27.637Z,28.58
2019-06-27T21:23:57.220Z,28.86
2019-06-27T21:26:26.802Z,28.91
2019-06-27T21:28:56.374Z,28.91
2019-06-27T21:31:25.944Z,29.13
2019-06-27T21:33:55.529Z,29.22
2019-06-27T21:36:25.011Z,29.18
2019-06-27T21:39:07.243Z,29.24
2019-06-27T21:41:25.726Z,29.37
2019-06-27T21:43:55.314Z,29.33
2019-06-27T21:46:24.885Z,28.89
2019-06-27T21:48:54.472Z,29.02
2019-06-27T21:51:23.984Z,28.57
2019-06-27T21:53:53.564Z,28.48
2019-06-27T21:56:23.129Z,28.54
2019-06-27T21:58:52.630Z,28.74
2019-06-27T22:01:22.312Z,29.08
2019-06-27T22:03:52.163Z,28.84
2019-06-27T22:06:21.655Z,28.83
2019-06-27T22:08:51.231Z,29.16
2019-06-27T22:11:20.821Z,29.18
2019-06-27T22:13:50.316Z,29.40
2019-06-27T22:16:19.885Z,28.30
2019-06-27T22:18:49.457Z,28.14
2019-06-27T22:21:19.032Z,27.06
2019-06-27T22:23:48.641Z,26.78
2019-06-27T22:26:18.206Z,27.45
2019-06-27T22:28:47.836Z,27.46
2019-06-27T22:31:17.329Z,29.24
2019-06-27T22:33:46.918Z,26.83
2019-06-27T22:36:16.424Z,26.97
2019-06-27T22:39:03.680Z,27.04
2019-06-27T22:41:51.195Z,27.84
2019-06-27T22:44:38.646Z,26.83
2019-06-27T22:47:26.208Z,28.25
2019-06-27T22:49:54.908Z,26.93
2019-06-27T22:52:49.270Z,29.05
2019-06-27T22:55:21.744Z,29.69
2019-06-27T22:57:51.239Z,29.91
2019-06-27T23:00:20.991Z,30.72
2019-06-27T23:02:50.496Z,30.30
2019-06-27T23:05:20.473Z,30.30
2019-06-27T23:07:49.963Z,31.07
2019-06-27T23:10:19.625Z,31.92
2019-06-27T23:12:49.114Z,30.79
2019-06-27T23:15:18.711Z,30.79
2019-06-27T23:17:48.293Z,31.03
2019-06-27T23:20:18.225Z,31.22
2019-06-27T23:22:47.731Z,30.79
2019-06-27T23:25:17.231Z,30.67
2019-06-27T23:27:47.009Z,30.67
2019-06-27T23:30:16.968Z,31.77
2019-06-27T23:32:46.537Z,31.99
2019-06-27T23:35:16.480Z,30.85
2019-06-27T23:37:46.070Z,30.75
2019-06-27T23:40:15.884Z,31.58
2019-06-27T23:42:45.665Z,31.07
2019-06-27T23:45:15.315Z,30.89
2019-06-27T23:47:44.949Z,30.93
2019-06-27T23:50:14.970Z,32.14
2019-06-27T23:52:44.885Z,32.23
2019-06-27T23:55:14.752Z,32.19
2019-06-27T23:57:44.443Z,32.19
